Main page
METAR-TAF:

METAR-TAF

Airports :

Emporia Municipal Airport

Emporia, Kansas, United States

latitude: 38-19-44N, longitude: 096-11-38W, elevation: 1204 ft

Current weather observation

The report was made 30 minutes ago, at 13:53 UTC
Wind 17 mph from the South
Temperature 32°F
Humidity 64%
Pressure 30.21 in. Hg
Visibility: 10 miles
Clear sky

METAR: KEMP 221353Z AUTO 18015KT 10SM CLR 00/M06 A3021 RMK AO2 SLP243 T00001061

Time: 08:23 (14:23 UTC)


TAF: missing

Weather observations and forecasts of more than 4000 airports (METAR and TAF reports).

The available stations are represented by yellow and red dots on the map.

Hover mouse over dot to see the name of the station.

Then click to see weather observations and forecasts.

To change the map : click on the green buttons with a black cross to zoom in, on the green button with a dash to zoom out, or on the green arrows for adjacent maps.


METAR-TAF: